Aviation Digital Data Service (ADDS)

Output produced by METARs form (2039 UTC 02 October 2022)
found at http://www.aviationweather.gov/metar/data/
 
METAR text: KFAT 021953Z 16004KT 10SM FEW200 26/13 A2994 RMK AO2 SLP136 T02610128
Conditions at: KFAT (FRESNO , CA, US) observed 1953 UTC 02 October 2022
Temperature: 26.1°C (79°F)
Dewpoint: 12.8°C (55°F) [RH = 44%]
Pressure (altimeter): 29.94 inches Hg (1014.0 mb)
[Sea-level pressure: 1013.6 mb]
Winds: from the SSE (160 degrees) at 5 MPH (4 knots; 2.1 m/s)
Visibility: 10 or more miles (16+ km)
Ceiling: at least 12,000 feet AGL
Clouds: few clouds at 20000 feet AGL
Weather: no significant weather observed at this time

Forecast for: KFAT (FRESNO , CA, US)
Text: KFAT 021720Z 0218/0318 31007KT P6SM SKC
Forecast period: 1800 UTC 02 October 2022 to 1800 UTC 03 October 2022
Forecast type: FROM: standard forecast or significant change
Winds: from the NW (310 degrees) at 8 MPH (7 knots; 3.6 m/s)
Visibility: 6 or more miles (10+ km)
Clouds: clear skies
Weather: no significant weather forecast for this period